Time;durP1;ratioP1;P1;durP2;ratioP2;P2;SDS_P1;SDS_P2;PMS_P1;PMS_P2;Temp;Humidity;BMP_temperature;BMP_pressure;BME280_temperature;BME280_humidity;BME280_pressure;Samples;Min_cycle;Max_cycle;Signal;HPM_P1;HPM_P2
2021/06/01 00:01:23;;;;;;;7.32;4.60;;;19.10;46.80;;;;;;5099410;28;20023;-77
2021/06/01 00:03:49;;;;;;;7.03;4.28;;;19.00;46.60;;;;;;5100929;28;20036;-77
2021/06/01 00:06:16;;;;;;;6.82;4.30;;;19.00;46.70;;;;;;5100501;28;20505;-77
2021/06/01 00:08:42;;;;;;;7.25;4.30;;;19.00;46.90;;;;;;5100875;28;20035;-78
2021/06/01 00:11:10;;;;;;;7.45;4.15;;;18.90;47.10;;;;;;5099333;28;20020;-78
2021/06/01 00:13:36;;;;;;;7.57;4.63;;;18.90;46.90;;;;;;5100909;28;20028;-78
2021/06/01 00:16:05;;;;;;;8.13;4.72;;;18.90;47.00;;;;;;5099786;28;20028;-78
2021/06/01 00:18:31;;;;;;;6.78;4.63;;;18.80;46.80;;;;;;5100505;28;20466;-78
2021/06/01 00:20:57;;;;;;;7.70;4.65;;;18.80;46.90;;;;;;5100100;28;20051;-78
2021/06/01 00:23:23;;;;;;;6.57;5.07;;;18.80;47.10;;;;;;5100737;28;20029;-78
2021/06/01 00:25:49;;;;;;;7.32;4.40;;;18.80;47.20;;;;;;5100250;28;20024;-78
2021/06/01 00:28:16;;;;;;;8.02;4.68;;;18.70;47.10;;;;;;5100524;28;20024;-78
2021/06/01 00:30:42;;;;;;;9.10;4.85;;;18.60;47.40;;;;;;5099228;28;20486;-76
2021/06/01 00:33:09;;;;;;;7.07;4.10;;;18.60;47.40;;;;;;5100624;28;20123;-77
2021/06/01 00:35:35;;;;;;;7.88;5.10;;;18.60;47.20;;;;;;5100422;28;20101;-78
2021/06/01 00:38:02;;;;;;;8.35;5.18;;;18.50;47.20;;;;;;5100562;28;20060;-77
2021/06/01 00:40:29;;;;;;;6.30;4.65;;;18.50;47.40;;;;;;5099500;28;20486;-77
2021/06/01 00:42:55;;;;;;;7.80;4.70;;;18.50;47.60;;;;;;5100207;28;20032;-78
2021/06/01 00:45:24;;;;;;;6.93;4.43;;;18.50;47.50;;;;;;5100279;28;20437;-79
2021/06/01 00:47:50;;;;;;;7.63;4.72;;;18.40;47.50;;;;;;5100196;28;20020;-78
2021/06/01 00:50:17;;;;;;;7.35;5.03;;;18.40;47.70;;;;;;5100109;28;20097;-78
2021/06/01 00:52:43;;;;;;;7.28;3.90;;;18.30;47.50;;;;;;5099803;28;20020;-78
2021/06/01 00:55:09;;;;;;;8.10;4.57;;;18.30;47.50;;;;;;5099865;28;20020;-78
2021/06/01 00:57:35;;;;;;;6.53;4.65;;;18.30;47.20;;;;;;5099997;28;20115;-78
2021/06/01 01:00:15;;;;;;;9.25;4.95;;;18.20;47.20;;;;;;5095889;28;20030;-78
2021/06/01 01:02:41;;;;;;;7.72;4.53;;;18.20;47.40;;;;;;5100030;28;20406;-78
2021/06/01 01:05:10;;;;;;;7.32;4.53;;;18.20;47.40;;;;;;5100050;28;20028;-78
2021/06/01 01:07:46;;;;;;;6.38;4.65;;;18.10;47.40;;;;;;5098989;28;20027;-78
2021/06/01 01:10:16;;;;;;;7.28;5.00;;;18.10;47.50;;;;;;5097712;28;20044;-78
2021/06/01 01:12:55;;;;;;;7.07;4.47;;;18.10;47.30;;;;;;5098200;28;20059;-78
2021/06/01 01:15:22;;;;;;;9.73;4.47;;;18.00;47.30;;;;;;5099807;28;20039;-78
2021/06/01 01:17:53;;;;;;;8.43;4.78;;;18.00;47.40;;;;;;5099534;28;20043;-78
2021/06/01 01:20:37;;;;;;;6.53;4.40;;;18.00;47.60;;;;;;5098199;28;20020;-78
2021/06/01 01:23:17;;;;;;;7.65;5.00;;;17.90;47.50;;;;;;5099341;28;20028;-78
2021/06/01 01:25:49;;;;;;;6.75;4.55;;;17.90;47.60;;;;;;5099369;28;20020;-78
2021/06/01 01:28:30;;;;;;;8.10;4.70;;;17.80;47.60;;;;;;5099697;28;20514;-78
2021/06/01 01:31:21;;;;;;;6.72;4.90;;;17.80;47.80;;;;;;5099399;28;20027;-78
2021/06/01 01:33:48;;;;;;;8.32;4.90;;;17.80;48.10;;;;;;5098867;28;20399;-78
2021/06/01 01:36:15;;;;;;;7.05;4.40;;;17.70;48.10;;;;;;5098915;28;20036;-78
2021/06/01 01:38:42;;;;;;;7.13;4.65;;;17.70;48.00;;;;;;5098759;28;20051;-77
2021/06/01 01:41:12;;;;;;;7.82;4.70;;;17.70;48.80;;;;;;5086221;28;20020;-78
2021/06/01 01:43:41;;;;;;;7.70;4.50;;;17.60;48.20;;;;;;5098654;28;20016;-78
2021/06/01 01:46:15;;;;;;;7.63;4.50;;;17.60;48.30;;;;;;5095997;28;20120;-78
2021/06/01 01:49:01;;;;;;;7.03;4.90;;;17.50;48.10;;;;;;5099039;28;20486;-78
2021/06/01 01:51:39;;;;;;;7.43;4.47;;;17.60;47.80;;;;;;5099360;28;20016;-78
2021/06/01 01:54:22;;;;;;;7.00;4.43;;;17.50;47.70;;;;;;5097933;28;20051;-77
2021/06/01 01:56:58;;;;;;;6.88;4.28;;;17.50;47.60;;;;;;5093110;28;20035;-77
2021/06/01 01:59:29;;;;;;;7.70;5.05;;;17.40;48.10;;;;;;5092239;28;20028;-77
2021/06/01 02:01:55;;;;;;;8.55;5.05;;;17.40;48.10;;;;;;5096649;28;20031;-78
2021/06/01 02:04:27;;;;;;;7.97;4.97;;;17.40;48.10;;;;;;5098962;28;20023;-77
2021/06/01 02:06:53;;;;;;;9.00;5.28;;;17.30;48.40;;;;;;5097160;28;20024;-78
2021/06/01 02:09:20;;;;;;;7.63;4.93;;;17.30;48.60;;;;;;5098748;28;20110;-78
2021/06/01 02:11:45;;;;;;;7.00;4.78;;;17.30;48.60;;;;;;5098351;28;20024;-78
2021/06/01 02:14:12;;;;;;;7.72;4.20;;;17.20;48.40;;;;;;5098230;28;20405;-78
2021/06/01 02:16:40;;;;;;;7.68;4.63;;;17.20;48.40;;;;;;5098289;28;20020;-78
2021/06/01 02:19:08;;;;;;;10.02;5.03;;;17.20;48.10;;;;;;5098204;28;20025;-78
2021/06/01 02:25:01;;;;;;;6.85;4.43;;;17.10;48.60;;;;;;5080757;28;20038;-77
2021/06/01 02:27:39;;;;;;;9.13;4.82;;;17.10;48.30;;;;;;5092347;28;20023;-77
2021/06/01 02:30:18;;;;;;;6.80;4.57;;;17.00;48.10;;;;;;5098417;28;20103;-77
2021/06/01 02:32:51;;;;;;;7.25;4.63;;;17.00;47.90;;;;;;5092319;28;20024;-78
2021/06/01 02:35:41;;;;;;;9.07;5.10;;;17.00;48.00;;;;;;5098400;28;20044;-78
2021/06/01 02:38:09;;;;;;;8.82;5.13;;;16.90;48.20;;;;;;5092069;28;20114;-77
2021/06/01 02:40:37;;;;;;;7.28;4.93;;;16.90;48.40;;;;;;5084761;28;20021;-77
2021/06/01 02:43:07;;;;;;;8.70;5.00;;;16.90;48.70;;;;;;5097625;28;20418;-77
2021/06/01 02:45:36;;;;;;;7.63;4.90;;;16.90;48.50;;;;;;5097747;28;20046;-77
2021/06/01 02:48:03;;;;;;;6.22;4.90;;;16.80;48.70;;;;;;5097990;28;20030;-78
2021/06/01 02:50:31;;;;;;;7.47;5.13;;;16.80;48.80;;;;;;5097518;28;20040;-77
2021/06/01 02:52:58;;;;;;;8.77;4.70;;;16.80;49.00;;;;;;5097796;28;20115;-77
2021/06/01 02:55:25;;;;;;;9.90;5.65;;;16.80;49.00;;;;;;5095966;28;20024;-78
2021/06/01 02:57:51;;;;;;;9.23;5.97;;;16.70;48.60;;;;;;5096798;28;20490;-77
2021/06/01 03:00:21;;;;;;;9.00;4.57;;;16.70;48.90;;;;;;5094504;28;20027;-77
2021/06/01 03:02:47;;;;;;;8.60;5.00;;;16.70;48.40;;;;;;5096179;28;20034;-78
2021/06/01 03:05:13;;;;;;;8.07;5.13;;;16.70;48.40;;;;;;5096300;28;20055;-77
2021/06/01 03:07:41;;;;;;;7.65;6.05;;;16.60;48.60;;;;;;5097623;28;20115;-78
2021/06/01 03:10:10;;;;;;;9.20;6.10;;;16.60;48.90;;;;;;5097111;28;20020;-77
2021/06/01 03:12:50;;;;;;;7.60;5.10;;;16.60;49.00;;;;;;5095871;28;20024;-78
2021/06/01 03:15:16;;;;;;;8.63;5.20;;;16.50;48.80;;;;;;5096869;28;20102;-77
2021/06/01 03:17:42;;;;;;;8.45;5.40;;;16.50;49.20;;;;;;5097241;28;20024;-77
2021/06/01 03:20:09;;;;;;;8.82;5.38;;;16.50;48.90;;;;;;5096396;28;20027;-77
2021/06/01 03:22:35;;;;;;;8.73;5.50;;;16.50;49.20;;;;;;5096551;28;20140;-77
2021/06/01 03:25:01;;;;;;;10.35;5.57;;;16.40;49.20;;;;;;5097293;28;20020;-77
2021/06/01 03:27:26;;;;;;;8.27;5.72;;;16.40;49.40;;;;;;5097124;28;21330;-77
2021/06/01 03:29:52;;;;;;;8.68;5.50;;;16.40;49.40;;;;;;5097079;28;20024;-77
2021/06/01 03:32:18;;;;;;;8.48;5.93;;;16.30;49.40;;;;;;5096861;28;20385;-77
2021/06/01 03:34:44;;;;;;;9.02;5.93;;;16.30;49.50;;;;;;5097159;28;20021;-77
2021/06/01 03:37:10;;;;;;;9.60;6.15;;;16.30;49.50;;;;;;5095370;28;20153;-77
2021/06/01 03:39:36;;;;;;;8.43;5.30;;;16.30;49.60;;;;;;5090430;28;20096;-76
2021/06/01 03:42:01;;;;;;;11.10;5.55;;;16.20;49.40;;;;;;5090076;28;20111;-78
2021/06/01 03:44:27;;;;;;;8.35;5.90;;;16.20;49.30;;;;;;5091652;28;20020;-78
2021/06/01 03:46:53;;;;;;;10.10;5.78;;;16.20;49.20;;;;;;5090016;28;20501;-78
2021/06/01 03:49:19;;;;;;;9.07;5.85;;;16.10;49.20;;;;;;5095507;28;20115;-77
2021/06/01 03:51:44;;;;;;;9.20;6.07;;;16.10;49.40;;;;;;5096615;28;20035;-77
2021/06/01 03:54:10;;;;;;;10.70;6.75;;;16.10;49.90;;;;;;5096814;28;20124;-77
2021/06/01 03:56:37;;;;;;;10.70;7.18;;;16.10;50.00;;;;;;5096567;28;20032;-77
2021/06/01 03:59:04;;;;;;;10.82;7.53;;;16.10;50.50;;;;;;5094012;28;20047;-77
2021/06/01 04:01:30;;;;;;;12.40;7.00;;;16.10;50.80;;;;;;5097002;28;20086;-77
2021/06/01 04:03:56;;;;;;;11.80;6.95;;;16.00;49.70;;;;;;5097246;28;20020;-78
2021/06/01 04:06:22;;;;;;;9.70;6.80;;;16.00;49.80;;;;;;5097200;28;20028;-78
2021/06/01 04:08:48;;;;;;;10.55;6.45;;;16.00;49.80;;;;;;5094936;28;20548;-77
2021/06/01 04:11:13;;;;;;;9.85;6.15;;;16.00;49.50;;;;;;5091848;28;20024;-77
2021/06/01 04:13:39;;;;;;;9.63;6.45;;;15.90;49.70;;;;;;5097226;28;20475;-77
2021/06/01 04:16:06;;;;;;;9.13;6.15;;;15.90;49.70;;;;;;5096790;28;20032;-77
2021/06/01 04:18:32;;;;;;;8.93;5.57;;;15.90;49.70;;;;;;5096785;28;20022;-77
2021/06/01 04:20:59;;;;;;;12.80;6.50;;;15.90;49.70;;;;;;5097012;28;20052;-77
2021/06/01 04:23:25;;;;;;;8.88;5.68;;;15.90;49.80;;;;;;5095716;28;20035;-77
2021/06/01 04:25:51;;;;;;;9.10;5.57;;;15.90;49.80;;;;;;5096803;28;20510;-77
2021/06/01 04:28:17;;;;;;;12.35;5.78;;;15.80;49.90;;;;;;5096843;28;20024;-77
2021/06/01 04:30:44;;;;;;;7.55;5.50;;;15.80;49.70;;;;;;5096180;28;20020;-78
2021/06/01 04:33:11;;;;;;;10.07;5.57;;;15.80;49.70;;;;;;5097051;28;20079;-77
2021/06/01 04:35:38;;;;;;;10.38;5.43;;;15.80;49.70;;;;;;5096381;28;20051;-78
2021/06/01 04:38:04;;;;;;;9.43;5.70;;;15.80;49.80;;;;;;5096250;28;20032;-78
2021/06/01 04:40:30;;;;;;;9.23;5.53;;;15.80;49.70;;;;;;5082968;28;20031;-77
2021/06/01 04:42:56;;;;;;;9.57;6.03;;;15.80;49.60;;;;;;5097444;28;20028;-76
2021/06/01 04:45:22;;;;;;;11.07;5.72;;;15.80;49.80;;;;;;5100313;28;20073;-75
2021/06/01 04:47:47;;;;;;;8.63;5.03;;;15.80;50.00;;;;;;5100270;28;20020;-75
2021/06/01 04:50:15;;;;;;;10.05;5.65;;;15.70;50.00;;;;;;5100744;28;20028;-75
2021/06/01 04:52:41;;;;;;;9.25;5.38;;;15.80;49.90;;;;;;5090773;28;20024;-77
2021/06/01 04:55:09;;;;;;;8.50;5.18;;;15.80;49.80;;;;;;5099682;28;20040;-78
2021/06/01 04:57:35;;;;;;;9.60;6.05;;;15.80;50.10;;;;;;5099643;28;20020;-78
2021/06/01 05:00:01;;;;;;;10.05;5.63;;;15.80;50.20;;;;;;5094812;28;20406;-78
2021/06/01 05:02:26;;;;;;;7.95;5.70;;;15.80;50.70;;;;;;5099699;28;20020;-77
2021/06/01 05:04:52;;;;;;;9.18;4.90;;;15.80;50.50;;;;;;5099418;28;20024;-77
2021/06/01 05:07:18;;;;;;;8.55;5.15;;;15.80;50.40;;;;;;5100063;28;20031;-78
2021/06/01 05:09:44;;;;;;;11.80;5.00;;;15.80;50.50;;;;;;5092660;28;20062;-75
2021/06/01 05:12:10;;;;;;;10.25;5.00;;;15.80;50.60;;;;;;5092544;28;20020;-77
2021/06/01 05:14:36;;;;;;;10.38;5.40;;;15.80;50.70;;;;;;5099830;28;20094;-74
2021/06/01 05:17:02;;;;;;;8.50;5.30;;;15.90;51.20;;;;;;5099649;28;20024;-76
2021/06/01 05:19:27;;;;;;;11.15;4.97;;;15.90;51.10;;;;;;5099694;28;20020;-78
2021/06/01 05:21:53;;;;;;;8.60;5.75;;;15.90;51.00;;;;;;5099176;28;20060;-78
2021/06/01 05:24:19;;;;;;;10.30;5.25;;;16.00;51.90;;;;;;5098575;28;20054;-77
2021/06/01 05:26:45;;;;;;;10.38;5.70;;;16.00;52.20;;;;;;5097854;28;20036;-75
2021/06/01 05:29:11;;;;;;;10.35;5.32;;;16.00;52.60;;;;;;5098730;28;20024;-78
2021/06/01 05:34:12;;;;;;;8.43;5.20;;;16.10;52.00;;;;;;5099847;28;20117;-77
2021/06/01 05:36:39;;;;;;;7.88;4.75;;;16.10;51.60;;;;;;5098582;28;20048;-74
2021/06/01 05:39:14;;;;;;;10.90;5.18;;;16.10;52.10;;;;;;5093907;28;20028;-72
2021/06/01 05:41:40;;;;;;;8.63;5.15;;;16.10;51.60;;;;;;5098151;28;20043;-77
2021/06/01 05:44:06;;;;;;;8.88;5.10;;;16.10;52.20;;;;;;5097481;28;20032;-77
2021/06/01 05:46:33;;;;;;;14.68;5.50;;;16.20;51.90;;;;;;5097215;28;20050;-78
2021/06/01 05:49:00;;;;;;;11.27;5.03;;;16.20;52.00;;;;;;5096385;28;20454;-78
2021/06/01 05:51:34;;;;;;;9.93;4.68;;;16.20;51.80;;;;;;5098431;28;20035;-80
2021/06/01 05:54:01;;;;;;;8.52;5.00;;;16.20;51.60;;;;;;5098977;28;20036;-76
2021/06/01 05:56:27;;;;;;;9.27;5.13;;;16.30;51.60;;;;;;5098578;28;20482;-77
2021/06/01 05:58:53;;;;;;;10.32;4.60;;;16.30;52.30;;;;;;5094704;28;20455;-77
2021/06/01 06:01:18;;;;;;;7.93;4.35;;;16.30;52.40;;;;;;5099103;28;20027;-76
2021/06/01 06:03:44;;;;;;;9.57;5.07;;;16.30;52.50;;;;;;5098523;28;20024;-75
2021/06/01 06:06:14;;;;;;;10.70;5.10;;;16.40;53.10;;;;;;5099036;28;20022;-76
2021/06/01 06:08:41;;;;;;;9.45;5.47;;;16.40;52.60;;;;;;5082742;28;20437;-76
2021/06/01 06:11:07;;;;;;;12.35;5.03;;;16.50;52.30;;;;;;5098703;28;20103;-77
2021/06/01 06:13:33;;;;;;;8.50;5.10;;;16.50;53.00;;;;;;5096818;28;20055;-77
2021/06/01 06:15:59;;;;;;;9.55;4.78;;;16.50;52.70;;;;;;5094351;28;20432;-76
2021/06/01 06:18:30;;;;;;;10.10;5.47;;;16.60;52.70;;;;;;5098585;28;20085;-76
2021/06/01 06:21:01;;;;;;;7.67;4.77;;;16.60;53.00;;;;;;5092593;28;20017;-77
2021/06/01 06:23:29;;;;;;;10.13;4.78;;;16.60;53.50;;;;;;5097809;28;20099;-77
2021/06/01 06:25:55;;;;;;;8.48;5.10;;;16.70;53.20;;;;;;5098061;28;20518;-77
2021/06/01 06:28:21;;;;;;;9.38;4.65;;;16.70;53.50;;;;;;5098476;28;20047;-77
2021/06/01 06:30:46;;;;;;;11.38;5.38;;;16.80;53.40;;;;;;5098183;28;20024;-76
2021/06/01 06:33:12;;;;;;;25.67;13.88;;;16.80;53.90;;;;;;5098473;28;20024;-76
2021/06/01 06:35:38;;;;;;;20.67;11.52;;;16.90;54.10;;;;;;5096840;28;20052;-74
2021/06/01 06:38:04;;;;;;;14.57;7.05;;;16.90;54.00;;;;;;5098146;28;20020;-74
2021/06/01 06:40:30;;;;;;;10.98;6.05;;;17.00;53.90;;;;;;5084585;28;20575;-74
2021/06/01 06:42:57;;;;;;;13.38;5.68;;;17.00;53.70;;;;;;5093781;28;20028;-74
2021/06/01 06:45:24;;;;;;;8.43;4.82;;;17.10;54.20;;;;;;5095861;28;20024;-74
2021/06/01 06:48:05;;;;;;;9.63;5.25;;;17.20;54.10;;;;;;5097418;28;20539;-74
2021/06/01 06:50:34;;;;;;;9.00;5.15;;;17.40;54.50;;;;;;5094860;28;20020;-75
2021/06/01 06:53:02;;;;;;;10.48;5.32;;;17.60;55.50;;;;;;5097569;28;20091;-76
2021/06/01 06:55:28;;;;;;;10.65;4.82;;;17.90;56.70;;;;;;5096155;28;20028;-74
2021/06/01 06:57:53;;;;;;;10.25;5.60;;;18.30;58.00;;;;;;5085106;28;20074;-74
2021/06/01 07:00:23;;;;;;;10.63;5.57;;;18.70;58.70;;;;;;5094623;28;20074;-75
2021/06/01 07:02:49;;;;;;;9.02;4.43;;;19.20;59.40;;;;;;5097223;28;20020;-75
2021/06/01 07:05:17;;;;;;;9.52;4.80;;;19.70;59.00;;;;;;5097152;28;20028;-75
2021/06/01 07:07:43;;;;;;;11.73;5.95;;;20.10;59.20;;;;;;5097845;28;20012;-75
2021/06/01 07:10:12;;;;;;;9.45;5.47;;;20.60;58.30;;;;;;5097010;28;20020;-76
2021/06/01 07:12:40;;;;;;;11.93;5.65;;;21.10;59.00;;;;;;5096782;28;20440;-73
2021/06/01 07:15:26;;;;;;;8.20;4.60;;;21.70;58.60;;;;;;5096336;28;20028;-75
2021/06/01 07:17:59;;;;;;;8.90;4.93;;;22.20;55.60;;;;;;5085404;28;20046;-75
2021/06/01 07:20:30;;;;;;;10.82;4.97;;;22.80;56.80;;;;;;5095066;28;20034;-75
2021/06/01 07:22:56;;;;;;;13.10;5.30;;;23.30;56.30;;;;;;5097470;28;20031;-75
2021/06/01 07:25:22;;;;;;;13.60;5.03;;;23.70;55.60;;;;;;5097429;28;20382;-75
2021/06/01 07:27:48;;;;;;;9.85;5.28;;;24.10;54.30;;;;;;5097396;28;20043;-75
2021/06/01 07:30:14;;;;;;;10.80;4.63;;;24.40;53.20;;;;;;5097067;28;20028;-75
2021/06/01 07:32:40;;;;;;;8.98;4.90;;;24.60;52.90;;;;;;5097311;28;20024;-74
2021/06/01 07:35:07;;;;;;;9.15;4.95;;;24.90;52.70;;;;;;5097673;28;20030;-75
2021/06/01 07:37:33;;;;;;;8.00;4.40;;;25.20;51.20;;;;;;5097316;28;20111;-74
2021/06/01 07:39:59;;;;;;;10.85;4.72;;;25.40;51.40;;;;;;5084074;28;20025;-74
2021/06/01 07:42:25;;;;;;;11.18;4.05;;;25.60;50.20;;;;;;5093205;28;20032;-74
2021/06/01 07:44:51;;;;;;;10.35;4.18;;;25.90;50.90;;;;;;5097074;28;20024;-74
2021/06/01 07:47:17;;;;;;;7.55;4.10;;;26.30;51.40;;;;;;5097183;28;20031;-74
2021/06/01 07:49:42;;;;;;;9.45;4.30;;;26.70;52.10;;;;;;5097398;28;20051;-74
2021/06/01 07:52:08;;;;;;;7.53;3.70;;;27.10;51.80;;;;;;5097242;28;20109;-75
2021/06/01 07:54:34;;;;;;;9.40;4.07;;;27.50;50.60;;;;;;5097150;28;20024;-74
2021/06/01 07:57:00;;;;;;;12.88;4.43;;;28.00;50.60;;;;;;5096871;28;20539;-75
2021/06/01 07:59:26;;;;;;;7.80;3.90;;;28.40;51.50;;;;;;5089964;28;20567;-76
2021/06/01 08:01:52;;;;;;;24.17;19.30;;;28.70;48.10;;;;;;5096994;28;20112;-76
2021/06/01 08:04:17;;;;;;;7.15;3.85;;;29.10;48.80;;;;;;5085612;28;20013;-76
2021/06/01 08:06:43;;;;;;;9.25;3.45;;;29.40;48.50;;;;;;5088320;28;20077;-76
2021/06/01 08:09:09;;;;;;;8.98;3.65;;;29.60;47.80;;;;;;5096416;28;20048;-76
2021/06/01 08:11:36;;;;;;;7.60;3.20;;;29.90;47.20;;;;;;5095817;28;20029;-76
2021/06/01 08:14:02;;;;;;;9.40;4.15;;;30.30;46.50;;;;;;5092987;28;20024;-76
2021/06/01 08:16:31;;;;;;;7.85;3.67;;;30.60;46.90;;;;;;5096471;28;20109;-76
2021/06/01 08:19:16;;;;;;;8.13;3.40;;;30.90;42.60;;;;;;5099647;28;20023;-75
2021/06/01 08:24:15;;;;;;;6.85;3.85;;;31.30;43.00;;;;;;5100424;28;20486;-76
2021/06/01 08:26:40;;;;;;;6.13;3.78;;;31.50;39.60;;;;;;5100080;28;20032;-76
2021/06/01 08:29:08;;;;;;;8.40;3.72;;;31.70;40.80;;;;;;5100587;28;20027;-76
2021/06/01 08:31:34;;;;;;;7.25;3.40;;;31.70;42.50;;;;;;5100352;28;20372;-76
2021/06/01 08:34:00;;;;;;;9.05;3.60;;;31.90;43.90;;;;;;5100256;28;20052;-76
2021/06/01 08:36:27;;;;;;;8.00;3.70;;;32.20;42.70;;;;;;5100204;28;20048;-77
2021/06/01 08:38:53;;;;;;;8.23;3.78;;;32.40;43.00;;;;;;5093680;28;20092;-74
2021/06/01 08:41:19;;;;;;;7.35;3.70;;;32.70;42.20;;;;;;5099604;28;20020;-77
2021/06/01 08:43:47;;;;;;;6.88;3.22;;;32.90;38.80;;;;;;5098942;28;20031;-78
2021/06/01 08:46:13;;;;;;;6.75;3.65;;;33.00;40.30;;;;;;5089743;28;20471;-78
2021/06/01 08:48:40;;;;;;;5.68;3.17;;;33.20;39.70;;;;;;5098458;28;20024;-77
2021/06/01 08:51:07;;;;;;;7.30;3.70;;;33.40;40.80;;;;;;5100136;28;20028;-77
2021/06/01 08:53:36;;;;;;;8.68;3.53;;;33.60;40.20;;;;;;5099962;28;20048;-77
2021/06/01 08:56:03;;;;;;;7.50;3.80;;;33.80;40.20;;;;;;5099812;28;20098;-77
2021/06/01 08:58:29;;;;;;;6.85;3.60;;;34.10;41.20;;;;;;5095421;28;20174;-77
2021/06/01 09:00:55;;;;;;;7.20;3.58;;;34.50;37.40;;;;;;5099885;28;20024;-77
2021/06/01 09:03:23;;;;;;;8.48;3.58;;;34.60;38.10;;;;;;5097868;28;20103;-77
2021/06/01 09:06:35;;;;;;;7.43;3.75;;;34.70;39.00;;;;;;5099354;28;20058;-77
2021/06/01 09:11:45;;;;;;;8.70;3.47;;;35.20;39.00;;;;;;5093379;28;20418;-78
2021/06/01 09:22:39;;;;;;;6.18;3.13;;;36.40;37.90;;;;;;5099492;28;20085;-77
2021/06/01 09:25:23;;;;;;;4.63;2.90;;;36.70;38.10;;;;;;5091397;28;20478;-75
2021/06/01 09:27:52;;;;;;;7.20;3.00;;;37.00;38.80;;;;;;5099094;28;20035;-77
2021/06/01 09:30:41;;;;;;;5.22;3.00;;;37.30;36.20;;;;;;5097636;28;20020;-77
2021/06/01 09:33:25;;;;;;;6.13;3.05;;;37.50;36.60;;;;;;5091045;28;20383;-77
2021/06/01 09:35:59;;;;;;;7.75;3.38;;;37.70;37.00;;;;;;5095859;28;20060;-77
2021/06/01 09:38:43;;;;;;;7.45;2.70;;;37.90;35.50;;;;;;5094598;28;20028;-77
2021/06/01 09:41:17;;;;;;;6.82;2.97;;;38.20;34.30;;;;;;5090271;28;20478;-78
2021/06/01 09:43:55;;;;;;;6.25;2.58;;;38.30;33.40;;;;;;5098750;28;20016;-77
2021/06/01 09:46:25;;;;;;;5.05;2.60;;;38.40;34.90;;;;;;5097666;28;20541;-77
2021/06/01 09:48:54;;;;;;;9.48;3.10;;;38.70;32.60;;;;;;5098892;28;20028;-77
2021/06/01 09:51:32;;;;;;;6.15;2.78;;;38.80;34.30;;;;;;5099368;28;20079;-75
2021/06/01 09:54:57;;;;;;;6.65;2.65;;;39.00;35.80;;;;;;5098944;28;20031;-76
2021/06/01 09:57:25;;;;;;;5.88;2.78;;;39.40;37.00;;;;;;5086182;28;20032;-77
2021/06/01 10:00:13;;;;;;;8.27;2.85;;;39.80;36.20;;;;;;5094993;28;20024;-77
2021/06/01 10:02:40;;;;;;;5.15;2.90;;;40.10;34.90;;;;;;5089144;28;20020;-77
2021/06/01 10:05:18;;;;;;;7.10;2.90;;;40.40;35.50;;;;;;5097448;28;20020;-77
2021/06/01 10:07:44;;;;;;;5.68;2.85;;;40.60;33.70;;;;;;5098835;28;20024;-78
2021/06/01 10:10:16;;;;;;;5.55;2.70;;;40.80;32.90;;;;;;5097237;28;20134;-77
2021/06/01 10:12:49;;;;;;;6.25;2.60;;;40.90;33.20;;;;;;5098138;28;20012;-77
2021/06/01 10:15:16;;;;;;;4.78;2.80;;;41.00;34.80;;;;;;5097417;28;20035;-77
2021/06/01 10:17:43;;;;;;;5.70;2.92;;;41.30;34.20;;;;;;5098458;28;20024;-78
2021/06/01 10:20:09;;;;;;;6.95;3.00;;;41.50;33.60;;;;;;5097043;28;20020;-78
2021/06/01 10:22:36;;;;;;;4.03;2.63;;;41.70;34.80;;;;;;5098390;28;20055;-77
2021/06/01 10:25:03;;;;;;;5.07;2.58;;;42.10;33.60;;;;;;5098471;28;20028;-78
2021/06/01 10:27:29;;;;;;;4.57;2.20;;;42.30;34.50;;;;;;5098304;28;20020;-79
2021/06/01 10:29:55;;;;;;;4.50;2.45;;;42.50;32.60;;;;;;5098669;28;20382;-78
2021/06/01 10:32:22;;;;;;;5.60;2.50;;;42.50;32.60;;;;;;5098296;28;20048;-78
2021/06/01 10:34:50;;;;;;;4.40;2.55;;;42.70;33.30;;;;;;5096953;28;20547;-78
2021/06/01 10:48:54;;;;;;;4.90;2.20;;;43.10;33.90;;;;;;5097993;28;20087;-80
2021/06/01 10:51:29;;;;;;;3.75;2.05;;;43.20;32.20;;;;;;5097878;28;20020;-79
2021/06/01 10:53:56;;;;;;;5.07;2.10;;;43.20;34.20;;;;;;5096940;28;20020;-79
2021/06/01 10:56:22;;;;;;;4.88;2.33;;;43.30;33.90;;;;;;5097924;28;20032;-79
2021/06/01 10:58:53;;;;;;;6.20;2.42;;;43.30;32.20;;;;;;5093790;28;20147;-79
2021/06/01 11:04:09;;;;;;;5.55;2.25;;;43.20;33.60;;;;;;5086286;28;20093;-79
2021/06/01 11:06:59;;;;;;;4.95;1.90;;;43.20;32.60;;;;;;5097903;28;20024;-79
2021/06/01 11:09:33;;;;;;;3.80;1.92;;;43.20;31.70;;;;;;5097982;28;20421;-79
2021/06/01 11:12:27;;;;;;;5.10;1.73;;;43.20;32.80;;;;;;5085061;28;20043;-79
2021/06/01 11:14:59;;;;;;;5.00;2.10;;;43.20;32.60;;;;;;5097627;28;20047;-80
2021/06/01 11:17:39;;;;;;;6.03;2.10;;;43.20;32.40;;;;;;5097712;28;20497;-79
2021/06/01 11:20:17;;;;;;;5.20;2.22;;;43.20;32.40;;;;;;5085047;28;20028;-79
2021/06/01 11:22:59;;;;;;;3.65;1.98;;;43.10;30.80;;;;;;5097901;28;20024;-79
2021/06/01 11:33:41;;;;;;;5.90;2.20;;;42.90;31.30;;;;;;5096458;28;20038;-80
2021/06/01 11:36:15;;;;;;;5.38;2.25;;;42.70;32.00;;;;;;5095916;28;20044;-80
2021/06/01 11:38:54;;;;;;;6.53;2.05;;;42.60;32.10;;;;;;5093705;28;20027;-78
2021/06/01 11:44:17;;;;;;;6.05;1.70;;;42.10;31.40;;;;;;5097407;28;20031;-80
2021/06/01 11:46:54;;;;;;;3.55;1.85;;;41.80;30.40;;;;;;5097425;28;20490;-80
2021/06/01 11:52:05;;;;;;;3.67;2.13;;;41.20;32.10;;;;;;5098349;28;20383;-80
2021/06/01 11:54:31;;;;;;;4.22;1.77;;;40.90;30.90;;;;;;5101745;28;20027;-80
2021/06/01 12:18:47;;;;;;;5.35;1.80;;;36.90;33.00;;;;;;5090415;28;20027;-80
2021/06/01 12:21:22;;;;;;;3.42;1.50;;;36.50;31.90;;;;;;5101021;28;20024;-81
2021/06/01 12:24:06;;;;;;;3.80;1.67;;;36.20;33.90;;;;;;5099853;28;20020;-81
2021/06/01 12:26:59;;;;;;;4.90;2.03;;;35.90;34.20;;;;;;5087644;28;20545;-82
2021/06/01 12:32:15;;;;;;;4.25;1.80;;;35.30;34.20;;;;;;5101091;28;20547;-80
2021/06/01 13:12:17;;;;;;;5.30;2.05;;;33.80;34.80;;;;;;5099867;28;20061;-79
2021/06/01 13:14:22;;;;;;;4.35;2.05;;;33.60;35.10;;;;;;5095994;28;20036;-79
2021/06/01 13:22:42;;;;;;;5.95;2.22;;;33.30;36.20;;;;;;5099956;28;20035;-79
2021/06/01 13:31:54;;;;;;;3.83;2.08;;;33.10;36.00;;;;;;5088117;28;20061;-80
2021/06/01 13:39:53;;;;;;;3.90;2.20;;;32.90;36.30;;;;;;5091713;28;20039;-80
2021/06/01 13:50:48;;;;;;;5.05;2.33;;;32.50;36.90;;;;;;5099319;28;20076;-80
2021/06/01 13:56:04;;;;;;;3.90;2.00;;;32.30;36.20;;;;;;5086657;28;20035;-79
2021/06/01 14:09:53;;;;;;;5.00;2.30;;;32.00;36.80;;;;;;5098886;28;20087;-80
2021/06/01 14:15:21;;;;;;;7.25;2.60;;;31.90;36.70;;;;;;5085174;28;20038;-79
2021/06/01 14:37:30;;;;;;;6.10;2.75;;;31.40;37.30;;;;;;5098516;28;20063;-79
2021/06/01 16:11:32;;;;;;;4.45;2.60;;;30.30;38.40;;;;;;5096990;28;20027;-79
2021/06/01 16:14:11;;;;;;;4.47;2.67;;;30.20;38.50;;;;;;5095956;28;20050;-78
2021/06/01 16:43:42;;;;;;;5.05;3.20;;;30.00;39.80;;;;;;5100759;28;20073;-80
2021/06/01 17:05:48;;;;;;;4.40;2.97;;;29.90;40.00;;;;;;5087548;28;20386;-76
2021/06/01 17:09:01;;;;;;;4.50;2.75;;;29.80;40.10;;;;;;5097114;28;20020;-71
2021/06/01 17:11:35;;;;;;;5.30;2.90;;;29.80;40.10;;;;;;5099647;28;20020;-77
2021/06/01 17:14:03;;;;;;;6.28;2.85;;;29.80;40.10;;;;;;5100148;28;20016;-76
2021/06/01 17:16:39;;;;;;;5.47;3.00;;;29.80;40.80;;;;;;5099560;28;20506;-75
2021/06/01 17:22:09;;;;;;;4.82;2.95;;;29.70;40.50;;;;;;5098364;28;20039;-74
2021/06/01 17:35:35;;;;;;;6.35;3.30;;;29.40;40.60;;;;;;5099426;28;20115;-75
2021/06/01 17:38:04;;;;;;;5.45;3.15;;;29.30;40.60;;;;;;5099578;28;20020;-75
2021/06/01 17:40:35;;;;;;;4.80;2.70;;;29.30;40.60;;;;;;5098850;28;20028;-74
2021/06/01 17:43:04;;;;;;;4.57;2.97;;;29.30;40.90;;;;;;5099423;28;20028;-75
2021/06/01 17:45:36;;;;;;;4.57;3.00;;;29.20;40.80;;;;;;5099140;28;20046;-75
2021/06/01 17:48:06;;;;;;;6.05;3.03;;;29.20;40.50;;;;;;5099361;28;20024;-75
2021/06/01 17:50:36;;;;;;;4.90;3.10;;;29.10;40.50;;;;;;5099325;28;20069;-75
2021/06/01 17:53:03;;;;;;;4.38;3.15;;;29.10;40.70;;;;;;5099102;28;20020;-74
2021/06/01 17:55:32;;;;;;;5.45;3.03;;;29.00;40.70;;;;;;5099136;28;20038;-75
2021/06/01 17:57:59;;;;;;;4.40;3.00;;;29.00;41.30;;;;;;5096619;28;20702;-75
2021/06/01 18:00:27;;;;;;;4.53;3.15;;;29.00;41.00;;;;;;5089043;28;20161;-74
2021/06/01 18:02:53;;;;;;;5.13;3.33;;;28.90;40.60;;;;;;5097525;28;20020;-75
2021/06/01 18:05:26;;;;;;;4.70;3.40;;;28.90;41.00;;;;;;5097665;28;20486;-75
2021/06/01 19:24:58;;;;;;;4.25;3.00;;;27.70;42.30;;;;;;5096733;28;20052;-69
2021/06/01 19:28:08;;;;;;;6.20;4.93;;;27.70;42.10;;;;;;5096172;28;20062;-69
2021/06/01 19:52:20;;;;;;;6.40;3.65;;;27.30;41.60;;;;;;5091098;28;20058;-72
2021/06/01 19:54:50;;;;;;;6.03;3.55;;;27.30;42.00;;;;;;5096819;28;20455;-73
2021/06/01 19:57:18;;;;;;;5.78;3.15;;;27.30;42.00;;;;;;5097006;28;20032;-73
2021/06/01 19:59:45;;;;;;;6.03;3.28;;;27.20;42.70;;;;;;5088930;28;20028;-73
2021/06/01 20:02:19;;;;;;;6.03;3.30;;;27.20;42.60;;;;;;5096391;28;20081;-71